sensor_id;sensor_type;location;lat;lon;timestamp;pressure;altitude;pressure_sealevel;temperature;humidity
78014;BME280;67222;50.182;8.734;2023-08-06T05:31:28;99399.00;;;14.82;96.41
78014;BME280;67222;50.182;8.734;2023-08-06T05:33:54;99400.63;;;14.83;95.54
78014;BME280;67222;50.182;8.734;2023-08-06T05:36:19;99404.34;;;14.77;95.18
78014;BME280;67222;50.182;8.734;2023-08-06T05:38:44;99396.06;;;14.83;95.79
78014;BME280;67222;50.182;8.734;2023-08-06T05:41:10;99397.44;;;14.86;95.70
78014;BME280;67222;50.182;8.734;2023-08-06T05:43:35;99394.75;;;14.86;96.43
78014;BME280;67222;50.182;8.734;2023-08-06T05:46:00;99399.00;;;14.82;96.81
78014;BME280;67222;50.182;8.734;2023-08-06T05:48:26;99394.13;;;14.74;96.48
78014;BME280;67222;50.182;8.734;2023-08-06T05:50:53;99400.44;;;14.90;95.43
78014;BME280;67222;50.182;8.734;2023-08-06T05:53:18;99399.63;;;14.89;96.17
78014;BME280;67222;50.182;8.734;2023-08-06T05:55:44;99399.63;;;14.89;96.50
78014;BME280;67222;50.182;8.734;2023-08-06T05:58:10;99413.53;;;14.86;96.16
78014;BME280;67222;50.182;8.734;2023-08-06T06:00:35;99403.94;;;14.90;95.58
78014;BME280;67222;50.182;8.734;2023-08-06T06:03:01;99399.91;;;14.93;94.42
78014;BME280;67222;50.182;8.734;2023-08-06T06:05:27;99399.41;;;14.96;94.73
78014;BME280;67222;50.182;8.734;2023-08-06T06:07:52;99395.38;;;14.98;94.88
78014;BME280;67222;50.182;8.734;2023-08-06T06:10:18;99392.41;;;14.95;95.42
78014;BME280;67222;50.182;8.734;2023-08-06T06:12:43;99403.69;;;14.97;95.62
78014;BME280;67222;50.182;8.734;2023-08-06T06:15:09;99391.59;;;14.94;95.23
78014;BME280;67222;50.182;8.734;2023-08-06T06:17:34;99403.41;;;14.93;95.59
78014;BME280;67222;50.182;8.734;2023-08-06T06:19:59;99403.66;;;14.92;95.74
78014;BME280;67222;50.182;8.734;2023-08-06T06:22:24;99398.59;;;14.95;96.07
78014;BME280;67222;50.182;8.734;2023-08-06T06:24:50;99391.38;;;15.01;95.32
78014;BME280;67222;50.182;8.734;2023-08-06T06:27:15;99400.50;;;15.00;93.49
78014;BME280;67222;50.182;8.734;2023-08-06T06:29:41;99394.56;;;14.98;94.95
78014;BME280;67222;50.182;8.734;2023-08-06T06:32:06;99395.66;;;14.97;95.18
78014;BME280;67222;50.182;8.734;2023-08-06T06:34:31;99391.41;;;15.06;95.80
78014;BME280;67222;50.182;8.734;2023-08-06T06:36:57;99395.50;;;15.13;93.99
78014;BME280;67222;50.182;8.734;2023-08-06T06:39:22;99400.84;;;15.08;93.96
78014;BME280;67222;50.182;8.734;2023-08-06T06:41:47;99403.22;;;15.05;93.64
78014;BME280;67222;50.182;8.734;2023-08-06T06:44:13;99406.50;;;15.12;94.00
78014;BME280;67222;50.182;8.734;2023-08-06T06:46:38;99404.53;;;15.02;94.56
78014;BME280;67222;50.182;8.734;2023-08-06T06:49:04;99402.91;;;15.01;94.34
78014;BME280;67222;50.182;8.734;2023-08-06T06:51:29;99400.75;;;14.98;93.47
78014;BME280;67222;50.182;8.734;2023-08-06T06:53:56;99402.63;;;14.98;95.17
78014;BME280;67222;50.182;8.734;2023-08-06T06:56:22;99402.56;;;14.88;94.57
78014;BME280;67222;50.182;8.734;2023-08-06T06:58:47;99402.34;;;14.94;95.28
78014;BME280;67222;50.182;8.734;2023-08-06T07:01:12;99401.19;;;14.85;95.53
78014;BME280;67222;50.182;8.734;2023-08-06T07:03:37;99407.69;;;14.89;96.35
78014;BME280;67222;50.182;8.734;2023-08-06T07:06:03;99398.00;;;14.88;95.87
78014;BME280;67222;50.182;8.734;2023-08-06T07:08:29;99394.53;;;14.93;96.18
78014;BME280;67222;50.182;8.734;2023-08-06T07:11:04;99394.72;;;14.81;96.74
78014;BME280;67222;50.182;8.734;2023-08-06T07:13:30;99397.94;;;14.83;96.95
78014;BME280;67222;50.182;8.734;2023-08-06T07:15:56;99398.47;;;14.80;96.48
78014;BME280;67222;50.182;8.734;2023-08-06T07:18:22;99395.22;;;14.78;97.09
78014;BME280;67222;50.182;8.734;2023-08-06T07:20:50;99391.19;;;14.75;96.40
78014;BME280;67222;50.182;8.734;2023-08-06T07:23:16;99394.66;;;14.71;96.44
78014;BME280;67222;50.182;8.734;2023-08-06T07:25:41;99394.69;;;14.76;97.02
78014;BME280;67222;50.182;8.734;2023-08-06T07:28:07;99394.72;;;14.81;96.73
78014;BME280;67222;50.182;8.734;2023-08-06T07:30:33;99394.94;;;14.74;96.46
78014;BME280;67222;50.182;8.734;2023-08-06T07:32:58;99394.69;;;14.76;96.57
78014;BME280;67222;50.182;8.734;2023-08-06T07:35:23;99393.88;;;14.75;96.02
78014;BME280;67222;50.182;8.734;2023-08-06T07:37:48;99398.72;;;14.78;95.88
78014;BME280;67222;50.182;8.734;2023-08-06T07:40:14;99407.63;;;14.84;96.53
78014;BME280;67222;50.182;8.734;2023-08-06T07:42:39;99397.66;;;14.79;95.87
78014;BME280;67222;50.182;8.734;2023-08-06T07:45:06;99402.69;;;14.71;95.78
78014;BME280;67222;50.182;8.734;2023-08-06T07:47:32;99391.34;;;14.64;96.90
78014;BME280;67222;50.182;8.734;2023-08-06T07:49:57;99392.38;;;14.58;97.55
78014;BME280;67222;50.182;8.734;2023-08-06T07:52:22;99385.91;;;14.53;97.57
78014;BME280;67222;50.182;8.734;2023-08-06T07:54:48;99391.47;;;14.47;98.16
78014;BME280;67222;50.182;8.734;2023-08-06T07:57:13;99384.47;;;14.46;98.03
78014;BME280;67222;50.182;8.734;2023-08-06T07:59:40;99398.69;;;14.46;98.13
78014;BME280;67222;50.182;8.734;2023-08-06T08:02:05;99395.22;;;14.46;98.00
78014;BME280;67222;50.182;8.734;2023-08-06T08:04:30;99391.78;;;14.50;98.14
78014;BME280;67222;50.182;8.734;2023-08-06T08:06:56;99394.97;;;14.47;97.93
78014;BME280;67222;50.182;8.734;2023-08-06T08:09:21;99398.25;;;14.54;97.75
78014;BME280;67222;50.182;8.734;2023-08-06T08:11:46;99390.22;;;14.54;97.37
78014;BME280;67222;50.182;8.734;2023-08-06T08:14:12;99378.97;;;14.58;98.32
78014;BME280;67222;50.182;8.734;2023-08-06T08:16:37;99376.94;;;14.70;99.31
78014;BME280;67222;50.182;8.734;2023-08-06T08:19:03;99391.44;;;14.74;98.45
78014;BME280;67222;50.182;8.734;2023-08-06T08:21:29;99386.13;;;14.79;97.63
78014;BME280;67222;50.182;8.734;2023-08-06T08:23:54;99388.31;;;14.87;98.54
78014;BME280;67222;50.182;8.734;2023-08-06T08:26:19;99386.41;;;14.82;96.87
78014;BME280;67222;50.182;8.734;2023-08-06T08:28:45;99390.25;;;14.92;96.57
78014;BME280;67222;50.182;8.734;2023-08-06T08:31:11;99392.13;;;14.91;96.42
78014;BME280;67222;50.182;8.734;2023-08-06T08:33:39;99384.81;;;14.87;96.71
78014;BME280;67222;50.182;8.734;2023-08-06T08:36:04;99387.34;;;14.98;96.48
78014;BME280;67222;50.182;8.734;2023-08-06T08:38:30;99390.03;;;15.03;97.32
78014;BME280;67222;50.182;8.734;2023-08-06T08:40:55;99386.09;;;15.11;97.90
78014;BME280;67222;50.182;8.734;2023-08-06T08:43:21;99388.00;;;15.15;97.07
78014;BME280;67222;50.182;8.734;2023-08-06T08:45:49;99383.19;;;15.23;96.49
78014;BME280;67222;50.182;8.734;2023-08-06T08:48:16;99376.78;;;15.29;96.38
78014;BME280;67222;50.182;8.734;2023-08-06T08:50:44;99380.56;;;15.33;96.21
78014;BME280;67222;50.182;8.734;2023-08-06T08:53:11;99377.38;;;15.41;95.33
78014;BME280;67222;50.182;8.734;2023-08-06T08:55:38;99369.38;;;15.46;94.95
78014;BME280;67222;50.182;8.734;2023-08-06T08:58:04;99373.16;;;15.55;94.72
78014;BME280;67222;50.182;8.734;2023-08-06T09:00:29;99376.75;;;15.66;93.46
78014;BME280;67222;50.182;8.734;2023-08-06T09:02:55;99374.63;;;15.78;95.62
78014;BME280;67222;50.182;8.734;2023-08-06T09:05:23;99366.59;;;15.88;94.80
78014;BME280;67222;50.182;8.734;2023-08-06T09:07:51;99368.75;;;15.96;95.38
78014;BME280;67222;50.182;8.734;2023-08-06T09:10:19;99365.31;;;16.01;93.17
78014;BME280;67222;50.182;8.734;2023-08-06T09:12:48;99366.13;;;16.07;92.61
78014;BME280;67222;50.182;8.734;2023-08-06T09:15:15;99364.72;;;15.99;91.96
78014;BME280;67222;50.182;8.734;2023-08-06T09:17:41;99367.94;;;15.86;93.11
78014;BME280;67222;50.182;8.734;2023-08-06T09:20:13;99371.66;;;15.69;92.87
78014;BME280;67222;50.182;8.734;2023-08-06T09:22:39;99373.41;;;15.54;94.59
78014;BME280;67222;50.182;8.734;2023-08-06T09:25:06;99374.69;;;15.36;95.86
78014;BME280;67222;50.182;8.734;2023-08-06T09:27:35;99367.66;;;15.30;97.13
78014;BME280;67222;50.182;8.734;2023-08-06T09:30:00;99363.84;;;15.21;96.67
78014;BME280;67222;50.182;8.734;2023-08-06T09:32:26;99364.91;;;15.20;97.52
78014;BME280;67222;50.182;8.734;2023-08-06T09:34:56;99360.88;;;15.22;98.71
78014;BME280;67222;50.182;8.734;2023-08-06T09:37:21;99364.47;;;15.33;98.26
78014;BME280;67222;50.182;8.734;2023-08-06T09:39:47;99360.75;;;15.44;99.38
78014;BME280;67222;50.182;8.734;2023-08-06T09:42:14;99359.19;;;15.58;98.27
78014;BME280;67222;50.182;8.734;2023-08-06T09:44:40;99355.53;;;15.69;99.52
78014;BME280;67222;50.182;8.734;2023-08-06T09:47:06;99350.47;;;15.83;97.19
78014;BME280;67222;50.182;8.734;2023-08-06T09:51:59;99349.66;;;15.88;95.25
78014;BME280;67222;50.182;8.734;2023-08-06T09:54:28;99351.00;;;15.85;93.85
78014;BME280;67222;50.182;8.734;2023-08-06T09:56:55;99363.06;;;15.78;94.32
78014;BME280;67222;50.182;8.734;2023-08-06T09:59:21;99359.00;;;15.70;93.88
78014;BME280;67222;50.182;8.734;2023-08-06T10:01:46;99361.44;;;15.66;94.58
78014;BME280;67222;50.182;8.734;2023-08-06T10:04:13;99353.63;;;15.65;95.56
78014;BME280;67222;50.182;8.734;2023-08-06T10:06:42;99354.16;;;15.62;97.57
78014;BME280;67222;50.182;8.734;2023-08-06T10:09:07;99352.28;;;15.62;96.75
78014;BME280;67222;50.182;8.734;2023-08-06T10:11:36;99357.94;;;15.66;98.06
78014;BME280;67222;50.182;8.734;2023-08-06T10:14:13;99352.56;;;15.76;97.45
78014;BME280;67222;50.182;8.734;2023-08-06T10:16:41;99342.69;;;15.92;97.08
78014;BME280;67222;50.182;8.734;2023-08-06T10:19:09;99346.19;;;15.97;96.98
78014;BME280;67222;50.182;8.734;2023-08-06T10:21:35;99336.81;;;16.15;96.97
78014;BME280;67222;50.182;8.734;2023-08-06T10:24:00;99337.38;;;16.32;95.27
78014;BME280;67222;50.182;8.734;2023-08-06T10:26:28;99338.97;;;16.54;96.49
78014;BME280;67222;50.182;8.734;2023-08-06T10:28:54;99339.00;;;16.69;94.45
78014;BME280;67222;50.182;8.734;2023-08-06T10:31:47;99349.00;;;16.74;93.99
78014;BME280;67222;50.182;8.734;2023-08-06T10:34:05;99356.22;;;16.63;90.91
78014;BME280;67222;50.182;8.734;2023-08-06T10:36:31;99352.72;;;16.52;89.74
78014;BME280;67222;50.182;8.734;2023-08-06T10:38:58;99349.19;;;16.16;91.39
78014;BME280;67222;50.182;8.734;2023-08-06T10:41:28;99346.47;;;16.01;95.04
78014;BME280;67222;50.182;8.734;2023-08-06T10:44:06;99355.31;;;15.91;97.69
78014;BME280;67222;50.182;8.734;2023-08-06T10:46:33;99348.06;;;15.87;97.09
78014;BME280;67222;50.182;8.734;2023-08-06T10:48:58;99352.34;;;15.83;97.90
78014;BME280;67222;50.182;8.734;2023-08-06T10:51:24;99346.97;;;15.88;98.75
78014;BME280;67222;50.182;8.734;2023-08-06T10:53:50;99342.16;;;15.95;97.18
78014;BME280;67222;50.182;8.734;2023-08-06T10:58:42;99342.75;;;16.27;98.31
78014;BME280;67222;50.182;8.734;2023-08-06T11:01:08;99336.31;;;16.39;98.01
78014;BME280;67222;50.182;8.734;2023-08-06T11:03:34;99341.97;;;16.62;98.98
78014;BME280;67222;50.182;8.734;2023-08-06T11:06:00;99332.03;;;16.78;95.21
78014;BME280;67222;50.182;8.734;2023-08-06T11:08:35;99342.78;;;16.73;94.43
78014;BME280;67222;50.182;8.734;2023-08-06T11:11:13;99341.72;;;16.74;95.67
78014;BME280;67222;50.182;8.734;2023-08-06T11:13:42;99341.19;;;16.77;93.75
78014;BME280;67222;50.182;8.734;2023-08-06T11:16:08;99328.25;;;16.84;95.46
78014;BME280;67222;50.182;8.734;2023-08-06T11:18:34;99334.16;;;16.97;95.29
78014;BME280;67222;50.182;8.734;2023-08-06T11:21:00;99341.69;;;17.00;91.45
78014;BME280;67222;50.182;8.734;2023-08-06T11:23:28;99332.53;;;17.01;88.16
78014;BME280;67222;50.182;8.734;2023-08-06T11:25:54;99350.03;;;16.98;88.13
78014;BME280;67222;50.182;8.734;2023-08-06T11:28:20;99342.22;;;17.12;90.39
78014;BME280;67222;50.182;8.734;2023-08-06T11:30:47;99344.59;;;17.18;86.60
78014;BME280;67222;50.182;8.734;2023-08-06T11:33:12;99354.88;;;17.11;85.98
78014;BME280;67222;50.182;8.734;2023-08-06T11:35:37;99350.81;;;17.19;90.25
78014;BME280;67222;50.182;8.734;2023-08-06T11:38:03;99356.16;;;17.34;86.39
78014;BME280;67222;50.182;8.734;2023-08-06T11:40:28;99355.56;;;17.52;88.78
78014;BME280;67222;50.182;8.734;2023-08-06T11:42:54;99348.75;;;17.75;87.60
78014;BME280;67222;50.182;8.734;2023-08-06T11:45:24;99341.25;;;18.11;89.43
78014;BME280;67222;50.182;8.734;2023-08-06T11:47:51;99350.53;;;18.34;83.50
78014;BME280;67222;50.182;8.734;2023-08-06T11:50:27;99354.16;;;18.20;81.31
78014;BME280;67222;50.182;8.734;2023-08-06T11:52:56;99351.06;;;17.97;83.61
78014;BME280;67222;50.182;8.734;2023-08-06T11:55:24;99363.63;;;17.68;82.60
78014;BME280;67222;50.182;8.734;2023-08-06T11:57:50;99367.41;;;17.46;84.64
78014;BME280;67222;50.182;8.734;2023-08-06T12:00:16;99379.66;;;17.13;86.98
78014;BME280;67222;50.182;8.734;2023-08-06T12:02:46;99385.28;;;16.51;89.06
78014;BME280;67222;50.182;8.734;2023-08-06T12:05:22;99393.84;;;16.22;91.56
78014;BME280;67222;50.182;8.734;2023-08-06T12:07:51;99399.94;;;15.82;91.06
78014;BME280;67222;50.182;8.734;2023-08-06T12:10:19;99424.22;;;15.55;92.54
78014;BME280;67222;50.182;8.734;2023-08-06T12:12:45;99424.38;;;15.38;92.72
78014;BME280;67222;50.182;8.734;2023-08-06T12:15:11;99428.91;;;15.33;94.35
78014;BME280;67222;50.182;8.734;2023-08-06T12:17:37;99445.00;;;15.28;94.54
78014;BME280;67222;50.182;8.734;2023-08-06T12:20:03;99451.06;;;15.13;95.54
78014;BME280;67222;50.182;8.734;2023-08-06T12:22:33;99446.69;;;15.02;95.53
78014;BME280;67222;50.182;8.734;2023-08-06T12:25:04;99453.41;;;15.04;97.40
78014;BME280;67222;50.182;8.734;2023-08-06T12:27:35;99456.69;;;15.06;97.19
78014;BME280;67222;50.182;8.734;2023-08-06T12:30:01;99462.25;;;15.00;95.83
78014;BME280;67222;50.182;8.734;2023-08-06T12:32:26;99470.03;;;15.01;97.28
78014;BME280;67222;50.182;8.734;2023-08-06T12:34:51;99479.97;;;15.01;97.45
78014;BME280;67222;50.182;8.734;2023-08-06T12:37:17;99488.25;;;14.94;96.65
78014;BME280;67222;50.182;8.734;2023-08-06T12:39:42;99483.91;;;14.88;95.60
78014;BME280;67222;50.182;8.734;2023-08-06T12:42:07;99492.50;;;14.90;97.22
78014;BME280;67222;50.182;8.734;2023-08-06T12:44:32;99504.56;;;14.88;95.93
78014;BME280;67222;50.182;8.734;2023-08-06T12:46:58;99502.63;;;14.83;94.31
78014;BME280;67222;50.182;8.734;2023-08-06T12:49:25;99505.41;;;14.66;92.75
78014;BME280;67222;50.182;8.734;2023-08-06T12:51:51;99516.84;;;14.57;93.38
78014;BME280;67222;50.182;8.734;2023-08-06T12:54:18;99523.28;;;14.56;94.95
78014;BME280;67222;50.182;8.734;2023-08-06T12:56:46;99519.66;;;14.45;93.28
78014;BME280;67222;50.182;8.734;2023-08-06T12:59:14;99523.84;;;14.36;93.83
78014;BME280;67222;50.182;8.734;2023-08-06T13:01:39;99526.22;;;14.32;94.38
78014;BME280;67222;50.182;8.734;2023-08-06T13:04:05;99541.66;;;14.25;93.93
78014;BME280;67222;50.182;8.734;2023-08-06T13:06:30;99552.03;;;14.16;93.65
78014;BME280;67222;50.182;8.734;2023-08-06T13:08:56;99547.31;;;14.07;93.35
78014;BME280;67222;50.182;8.734;2023-08-06T13:11:22;99557.50;;;14.05;95.33
78014;BME280;67222;50.182;8.734;2023-08-06T13:13:48;99559.59;;;14.03;96.17
78014;BME280;67222;50.182;8.734;2023-08-06T13:16:13;99556.88;;;13.98;94.47
78014;BME280;67222;50.182;8.734;2023-08-06T13:18:38;99574.00;;;13.97;95.66
78014;BME280;67222;50.182;8.734;2023-08-06T13:21:04;99572.38;;;13.96;96.62
78014;BME280;67222;50.182;8.734;2023-08-06T13:23:29;99575.13;;;14.01;97.05
78014;BME280;67222;50.182;8.734;2023-08-06T13:25:54;99567.09;;;14.01;96.59
78014;BME280;67222;50.182;8.734;2023-08-06T13:28:20;99574.13;;;14.07;97.56
78014;BME280;67222;50.182;8.734;2023-08-06T13:30:45;99576.31;;;14.10;96.97
78014;BME280;67222;50.182;8.734;2023-08-06T13:33:11;99588.59;;;14.06;96.67
78014;BME280;67222;50.182;8.734;2023-08-06T13:35:37;99580.88;;;14.09;97.10
78014;BME280;67222;50.182;8.734;2023-08-06T13:38:02;99586.72;;;14.06;95.63
78014;BME280;67222;50.182;8.734;2023-08-06T13:40:33;99595.56;;;14.07;96.73
78014;BME280;67222;50.182;8.734;2023-08-06T13:42:58;99592.91;;;14.07;96.94
78014;BME280;67222;50.182;8.734;2023-08-06T13:45:24;99598.25;;;14.07;95.12
78014;BME280;67222;50.182;8.734;2023-08-06T13:47:49;99598.19;;;14.02;95.64
78014;BME280;67222;50.182;8.734;2023-08-06T13:50:15;99616.41;;;14.00;96.67
78014;BME280;67222;50.182;8.734;2023-08-06T13:52:40;99610.22;;;13.99;95.52
78014;BME280;67222;50.182;8.734;2023-08-06T13:55:06;99606.16;;;13.97;95.11
78014;BME280;67222;50.182;8.734;2023-08-06T13:57:32;99615.28;;;13.96;95.71
78014;BME280;67222;50.182;8.734;2023-08-06T13:59:57;99600.81;;;13.97;97.42
78014;BME280;67222;50.182;8.734;2023-08-06T14:02:23;99609.72;;;14.02;96.38
78014;BME280;67222;50.182;8.734;2023-08-06T14:04:48;99611.09;;;14.05;95.31
78014;BME280;67222;50.182;8.734;2023-08-06T14:07:13;99613.03;;;14.09;95.32
78014;BME280;67222;50.182;8.734;2023-08-06T14:09:39;99620.00;;;14.10;95.95
78014;BME280;67222;50.182;8.734;2023-08-06T14:12:05;99613.34;;;14.13;96.97
78014;BME280;67222;50.182;8.734;2023-08-06T14:14:31;99624.41;;;14.16;97.50
78014;BME280;67222;50.182;8.734;2023-08-06T14:16:56;99622.03;;;14.20;95.06
78014;BME280;67222;50.182;8.734;2023-08-06T14:19:21;99619.69;;;14.23;95.12
78014;BME280;67222;50.182;8.734;2023-08-06T14:21:47;99623.97;;;14.24;95.46
78014;BME280;67222;50.182;8.734;2023-08-06T14:24:12;99622.09;;;14.25;93.73
78014;BME280;67222;50.182;8.734;2023-08-06T14:26:38;99626.72;;;14.30;94.12
78014;BME280;67222;50.182;8.734;2023-08-06T14:29:03;99626.16;;;14.28;93.83
78014;BME280;67222;50.182;8.734;2023-08-06T14:31:29;99623.47;;;14.28;93.82
78014;BME280;67222;50.182;8.734;2023-08-06T14:33:54;99628.84;;;14.28;94.75
78014;BME280;67222;50.182;8.734;2023-08-06T14:36:19;99632.44;;;14.33;93.86
78014;BME280;67222;50.182;8.734;2023-08-06T14:38:46;99635.91;;;14.34;93.84
78014;BME280;67222;50.182;8.734;2023-08-06T14:41:11;99633.50;;;14.32;92.99
78014;BME280;67222;50.182;8.734;2023-08-06T14:43:36;99642.09;;;14.34;90.54
78014;BME280;67222;50.182;8.734;2023-08-06T14:46:02;99636.38;;;14.31;91.90
78014;BME280;67222;50.182;8.734;2023-08-06T14:48:28;99646.81;;;14.27;90.99
78014;BME280;67222;50.182;8.734;2023-08-06T14:50:54;99653.88;;;14.33;93.15
78014;BME280;67222;50.182;8.734;2023-08-06T14:53:19;99648.28;;;14.35;92.13
78014;BME280;67222;50.182;8.734;2023-08-06T14:55:44;99651.44;;;14.32;91.05
78014;BME280;67222;50.182;8.734;2023-08-06T14:58:10;99653.88;;;14.33;92.96
78014;BME280;67222;50.182;8.734;2023-08-06T15:00:35;99664.44;;;14.40;92.91
78014;BME280;67222;50.182;8.734;2023-08-06T15:03:00;99657.75;;;14.42;92.97
78014;BME280;67222;50.182;8.734;2023-08-06T15:05:26;99660.44;;;14.42;92.10
78014;BME280;67222;50.182;8.734;2023-08-06T15:07:51;99669.22;;;14.38;92.61
78014;BME280;67222;50.182;8.734;2023-08-06T15:10:18;99668.47;;;14.42;91.80
78014;BME280;67222;50.182;8.734;2023-08-06T15:12:43;99670.28;;;14.37;91.68
78014;BME280;67222;50.182;8.734;2023-08-06T15:15:09;99682.06;;;14.36;92.08
78014;BME280;67222;50.182;8.734;2023-08-06T15:17:35;99685.25;;;14.33;90.39
78014;BME280;67222;50.182;8.734;2023-08-06T15:20:00;99687.59;;;14.29;91.11
78014;BME280;67222;50.182;8.734;2023-08-06T15:22:26;99683.84;;;14.30;90.88
78014;BME280;67222;50.182;8.734;2023-08-06T15:24:52;99686.72;;;14.23;92.22
78014;BME280;67222;50.182;8.734;2023-08-06T15:27:17;99695.00;;;14.22;91.30
78014;BME280;67222;50.182;8.734;2023-08-06T15:29:43;99690.22;;;14.24;90.83
78014;BME280;67222;50.182;8.734;2023-08-06T15:32:08;99696.44;;;14.30;88.57
78014;BME280;67222;50.182;8.734;2023-08-06T15:34:34;99699.06;;;14.24;88.23
78014;BME280;67222;50.182;8.734;2023-08-06T15:36:59;99705.47;;;14.23;89.02
78014;BME280;67222;50.182;8.734;2023-08-06T15:39:25;99699.25;;;14.18;88.38
78014;BME280;67222;50.182;8.734;2023-08-06T15:41:50;99708.16;;;14.23;88.43
78014;BME280;67222;50.182;8.734;2023-08-06T15:44:15;99717.09;;;14.29;88.12
78014;BME280;67222;50.182;8.734;2023-08-06T15:46:41;99708.00;;;14.30;88.07
78014;BME280;67222;50.182;8.734;2023-08-06T15:49:06;99724.06;;;14.30;87.44
78014;BME280;67222;50.182;8.734;2023-08-06T15:51:31;99733.28;;;14.34;87.31
78014;BME280;67222;50.182;8.734;2023-08-06T15:53:56;99733.28;;;14.34;85.20
78014;BME280;67222;50.182;8.734;2023-08-06T15:56:22;99734.81;;;14.30;86.32
78014;BME280;67222;50.182;8.734;2023-08-06T15:58:47;99736.69;;;14.30;86.70
78014;BME280;67222;50.182;8.734;2023-08-06T16:01:12;99740.53;;;14.34;84.88
78014;BME280;67222;50.182;8.734;2023-08-06T16:03:39;99731.31;;;14.30;85.23
78014;BME280;67222;50.182;8.734;2023-08-06T16:06:08;99744.47;;;14.31;86.38
78014;BME280;67222;50.182;8.734;2023-08-06T16:08:33;99746.28;;;14.25;87.31
78014;BME280;67222;50.182;8.734;2023-08-06T16:10:58;99753.50;;;14.25;87.92
78014;BME280;67222;50.182;8.734;2023-08-06T16:13:24;99759.94;;;14.24;86.84
78014;BME280;67222;50.182;8.734;2023-08-06T16:15:49;99763.75;;;14.28;87.80
78014;BME280;67222;50.182;8.734;2023-08-06T16:18:14;99756.75;;;14.27;86.83
78014;BME280;67222;50.182;8.734;2023-08-06T16:20:43;99768.53;;;14.26;87.09
78014;BME280;67222;50.182;8.734;2023-08-06T16:23:10;99765.72;;;14.16;89.24
78014;BME280;67222;50.182;8.734;2023-08-06T16:25:41;99771.88;;;14.16;89.31
78014;BME280;67222;50.182;8.734;2023-08-06T16:28:11;99774.81;;;14.15;89.11
78014;BME280;67222;50.182;8.734;2023-08-06T16:30:43;99770.06;;;14.05;91.66
78014;BME280;67222;50.182;8.734;2023-08-06T16:33:08;99778.19;;;13.93;91.03
78014;BME280;67222;50.182;8.734;2023-08-06T16:35:33;99786.63;;;13.85;91.65
78014;BME280;67222;50.182;8.734;2023-08-06T16:38:00;99786.53;;;13.80;92.09
78014;BME280;67222;50.182;8.734;2023-08-06T16:40:26;99789.69;;;13.77;93.30
78014;BME280;67222;50.182;8.734;2023-08-06T16:42:51;99780.03;;;13.76;94.32
78014;BME280;67222;50.182;8.734;2023-08-06T16:45:16;99789.34;;;13.74;93.87
78014;BME280;67222;50.182;8.734;2023-08-06T16:47:41;99785.75;;;13.68;95.41
78014;BME280;67222;50.182;8.734;2023-08-06T16:50:07;99789.34;;;13.74;96.33
78014;BME280;67222;50.182;8.734;2023-08-06T16:52:32;99787.16;;;13.71;95.94
78014;BME280;67222;50.182;8.734;2023-08-06T16:54:57;99790.63;;;13.71;96.38
78014;BME280;67222;50.182;8.734;2023-08-06T16:57:23;99793.56;;;13.70;97.40
78014;BME280;67222;50.182;8.734;2023-08-06T16:59:48;99794.47;;;13.75;97.21
78014;BME280;67222;50.182;8.734;2023-08-06T17:02:13;99799.41;;;13.67;96.79
78014;BME280;67222;50.182;8.734;2023-08-06T17:04:38;99788.78;;;13.72;97.50
78014;BME280;67222;50.182;8.734;2023-08-06T17:07:04;99791.31;;;13.78;98.16
78014;BME280;67222;50.182;8.734;2023-08-06T17:09:29;99798.44;;;13.73;97.70
78014;BME280;67222;50.182;8.734;2023-08-06T17:11:54;99803.31;;;13.76;97.24
78014;BME280;67222;50.182;8.734;2023-08-06T17:14:19;99799.50;;;13.72;97.47
78014;BME280;67222;50.182;8.734;2023-08-06T17:16:45;99811.84;;;13.73;97.49
78014;BME280;67222;50.182;8.734;2023-08-06T17:19:10;99802.97;;;13.72;96.95
78014;BME280;67222;50.182;8.734;2023-08-06T17:21:35;99815.81;;;13.70;97.46
78014;BME280;67222;50.182;8.734;2023-08-06T17:24:01;99810.44;;;13.70;98.03
78014;BME280;67222;50.182;8.734;2023-08-06T17:26:26;99808.50;;;13.66;98.26
78014;BME280;67222;50.182;8.734;2023-08-06T17:28:53;99820.84;;;13.67;98.26
78014;BME280;67222;50.182;8.734;2023-08-06T17:31:18;99813.03;;;13.65;98.36
78014;BME280;67222;50.182;8.734;2023-08-06T17:33:43;99820.59;;;13.68;98.61
78014;BME280;67222;50.182;8.734;2023-08-06T17:36:10;99816.88;;;13.69;98.42
78014;BME280;67222;50.182;8.734;2023-08-06T17:38:35;99818.50;;;13.70;98.01
78014;BME280;67222;50.182;8.734;2023-08-06T17:41:00;99823.28;;;13.68;98.57
78014;BME280;67222;50.182;8.734;2023-08-06T17:43:29;99822.31;;;13.74;98.06
78014;BME280;67222;50.182;8.734;2023-08-06T17:45:54;99828.47;;;13.75;97.58
78014;BME280;67222;50.182;8.734;2023-08-06T17:48:20;99833.03;;;13.74;97.81
78014;BME280;67222;50.182;8.734;2023-08-06T17:50:46;99829.28;;;13.75;97.45
78014;BME280;67222;50.182;8.734;2023-08-06T17:53:11;99831.56;;;13.67;97.73
78014;BME280;67222;50.182;8.734;2023-08-06T17:55:37;99828.97;;;13.72;98.04
78014;BME280;67222;50.182;8.734;2023-08-06T17:58:03;99835.03;;;13.67;97.75
78014;BME280;67222;50.182;8.734;2023-08-06T18:00:30;99835.84;;;13.68;97.56
78014;BME280;67222;50.182;8.734;2023-08-06T18:02:55;99842.84;;;13.69;98.16
78014;BME280;67222;50.182;8.734;2023-08-06T18:05:20;99839.81;;;13.65;97.07
78014;BME280;67222;50.182;8.734;2023-08-06T18:07:46;99839.25;;;13.63;97.96
78014;BME280;67222;50.182;8.734;2023-08-06T18:10:11;99839.03;;;13.53;97.74
78014;BME280;67222;50.182;8.734;2023-08-06T18:12:37;99842.41;;;13.60;98.23
78014;BME280;67222;50.182;8.734;2023-08-06T18:15:05;99850.22;;;13.61;98.20
78014;BME280;67222;50.182;8.734;2023-08-06T18:17:30;99844.97;;;13.55;96.84
78014;BME280;67222;50.182;8.734;2023-08-06T18:19:55;99846.25;;;13.52;97.01
78014;BME280;67222;50.182;8.734;2023-08-06T18:22:21;99851.50;;;13.59;97.45
78014;BME280;67222;50.182;8.734;2023-08-06T18:24:46;99851.97;;;13.56;96.83
78014;BME280;67222;50.182;8.734;2023-08-06T18:27:11;99854.63;;;13.56;97.46
78014;BME280;67222;50.182;8.734;2023-08-06T18:29:42;99854.88;;;13.54;97.32